Time;durP1;ratioP1;P1;durP2;ratioP2;P2;SDS_P1;SDS_P2;PMS_P1;PMS_P2;Temp;Humidity;BMP_temperature;BMP_pressure;BME280_temperature;BME280_humidity;BME280_pressure;Samples;Min_cycle;Max_cycle;Signal;HPM_P1;HPM_P2
2022/11/30 00:02:18;;;;;;;60.15;29.15;;;4.80;99.90;;;4.92;89.64;101792.56;4905102;29;20675;-74
2022/11/30 00:04:51;;;;;;;49.10;30.23;;;4.80;99.90;;;4.92;89.84;101797.94;4899676;29;20204;-74
2022/11/30 00:07:21;;;;;;;54.20;29.17;;;4.90;99.90;;;4.93;89.87;101796.94;4904801;29;20585;-74
2022/11/30 00:09:51;;;;;;;57.25;31.10;;;4.90;99.90;;;4.89;89.45;101803.59;4913865;29;20200;-74
2022/11/30 00:12:46;;;;;;;55.90;34.03;;;4.90;99.90;;;4.88;89.84;101800.06;4898771;29;20709;-75
2022/11/30 00:15:19;;;;;;;49.90;29.48;;;4.80;99.90;;;4.90;89.46;101797.22;4899655;29;20623;-74
2022/11/30 00:17:50;;;;;;;52.25;30.30;;;4.90;99.90;;;4.85;90.13;101804.84;4897977;29;20638;-73
2022/11/30 00:20:20;;;;;;;52.63;32.30;;;4.80;99.90;;;4.95;89.77;101805.69;4898326;29;20288;-73
2022/11/30 00:22:50;;;;;;;65.50;31.08;;;4.90;99.90;;;4.83;89.72;101799.66;4901822;29;20213;-72
2022/11/30 00:25:21;;;;;;;56.30;31.48;;;4.80;99.90;;;4.79;89.99;101801.75;4907848;29;20639;-76
2022/11/30 00:27:54;;;;;;;54.35;32.50;;;4.80;99.90;;;4.81;89.93;101806.97;4904573;29;20194;-74
2022/11/30 00:30:25;;;;;;;45.22;29.05;;;4.80;99.90;;;4.84;89.89;101804.03;4898238;29;20194;-73
2022/11/30 00:33:00;;;;;;;57.03;30.55;;;4.80;99.90;;;4.85;89.27;101805.69;4897641;29;20210;-73
2022/11/30 00:35:30;;;;;;;75.38;33.45;;;4.80;99.90;;;4.83;89.83;101805.00;4912192;29;20273;-73
2022/11/30 00:38:04;;;;;;;53.50;29.48;;;4.80;99.90;;;4.76;90.16;101799.34;4897727;29;20225;-74
2022/11/30 00:40:36;;;;;;;55.05;32.95;;;4.80;99.90;;;4.80;89.82;101802.59;4900288;29;20179;-75
2022/11/30 00:43:08;;;;;;;61.33;32.38;;;4.80;99.90;;;4.75;90.07;101792.28;4898872;29;20277;-75
2022/11/30 00:45:42;;;;;;;58.88;31.50;;;4.80;99.90;;;4.84;90.29;101803.19;4898068;29;20604;-74
2022/11/30 00:48:12;;;;;;;60.72;33.72;;;4.80;99.90;;;4.87;90.19;101801.03;4910608;29;20633;-74
2022/11/30 00:50:43;;;;;;;58.20;31.00;;;4.80;99.90;;;4.88;89.29;101804.56;4906235;29;20633;-75
2022/11/30 00:53:13;;;;;;;61.72;35.63;;;4.90;99.90;;;4.75;89.78;101797.66;4918468;29;20201;-74
2022/11/30 00:55:44;;;;;;;62.60;36.35;;;4.80;99.90;;;4.82;89.63;101800.63;4909661;29;20300;-73
2022/11/30 00:58:16;;;;;;;59.47;30.38;;;4.90;99.90;;;4.78;89.42;101802.75;4921070;29;20213;-75
2022/11/30 01:00:48;;;;;;;56.35;33.72;;;4.80;99.90;;;4.87;89.19;101806.41;4904146;29;20209;-75
2022/11/30 01:03:17;;;;;;;65.45;35.80;;;4.80;99.90;;;4.75;89.74;101800.34;4901093;29;20206;-74
2022/11/30 01:05:47;;;;;;;55.35;32.15;;;4.80;99.90;;;4.72;90.14;101810.50;4916879;29;20218;-74
2022/11/30 01:08:19;;;;;;;57.53;33.55;;;4.70;99.90;;;4.75;89.25;101811.06;4902351;29;20629;-74
2022/11/30 01:10:52;;;;;;;69.03;39.17;;;4.70;99.90;;;4.64;89.65;101813.91;4908509;29;20189;-73
2022/11/30 01:13:22;;;;;;;63.40;33.70;;;4.70;99.90;;;4.67;89.99;101810.94;4903109;29;20190;-74
2022/11/30 01:15:54;;;;;;;56.20;30.63;;;4.70;99.90;;;4.67;90.08;101805.56;4897145;29;20230;-74
2022/11/30 01:18:26;;;;;;;53.55;29.60;;;4.70;99.90;;;4.67;89.70;101808.25;4897257;29;20325;-74
2022/11/30 01:20:55;;;;;;;62.05;32.85;;;4.70;99.90;;;4.60;89.85;101809.78;4916231;29;20655;-74
2022/11/30 01:23:26;;;;;;;58.42;32.53;;;4.70;99.90;;;4.63;90.27;101812.22;4883533;29;20586;-75
2022/11/30 01:25:57;;;;;;;58.38;31.85;;;4.60;99.90;;;4.56;90.65;101816.44;4897025;29;20257;-74
2022/11/30 01:28:28;;;;;;;63.90;32.55;;;4.60;99.90;;;4.63;90.17;101812.22;4905880;29;20206;-74
2022/11/30 01:31:02;;;;;;;55.17;31.05;;;4.60;99.90;;;4.66;89.92;101817.28;4907198;29;20205;-73
2022/11/30 01:33:35;;;;;;;59.65;33.40;;;4.60;99.90;;;4.47;90.03;101817.28;4909258;29;20208;-73
2022/11/30 01:36:11;;;;;;;57.33;31.85;;;4.60;99.90;;;4.43;90.35;101818.56;4916178;29;20225;-73
2022/11/30 01:38:46;;;;;;;60.42;30.70;;;4.50;99.90;;;4.45;90.60;101818.44;4916267;29;20682;-73
2022/11/30 01:41:21;;;;;;;57.20;33.05;;;4.50;99.90;;;4.48;90.43;101827.03;4909785;29;20229;-73
2022/11/30 01:43:55;;;;;;;60.50;32.60;;;4.50;99.90;;;4.45;90.40;101818.44;4897714;29;20208;-74
2022/11/30 01:46:34;;;;;;;61.70;32.53;;;4.50;99.90;;;4.42;91.06;101814.19;4898435;29;20711;-74
2022/11/30 01:49:16;;;;;;;56.00;33.40;;;4.40;99.90;;;4.55;89.84;101822.78;4898639;29;20574;-75
2022/11/30 01:51:52;;;;;;;56.63;30.75;;;4.50;99.90;;;4.41;90.80;101817.84;4893811;29;20214;-74
2022/11/30 01:54:30;;;;;;;66.78;31.92;;;4.50;99.90;;;4.51;89.96;101818.69;4902442;29;20182;-74
2022/11/30 01:57:06;;;;;;;60.42;31.48;;;4.50;99.90;;;4.58;90.19;101819.84;4900725;29;20222;-73
2022/11/30 01:59:37;;;;;;;71.85;35.42;;;4.50;99.90;;;4.50;90.10;101819.69;4902608;29;20213;-75
2022/11/30 02:02:09;;;;;;;62.58;33.08;;;4.50;99.90;;;4.57;89.69;101822.66;4908912;29;20194;-76
2022/11/30 02:04:41;;;;;;;58.40;29.70;;;4.50;99.90;;;4.50;90.14;101825.06;4900416;29;20198;-75
2022/11/30 02:08:30;;;;;;;57.95;32.38;;;4.50;99.90;;;4.50;90.25;101832.25;4904649;29;20237;-74
2022/11/30 02:11:09;;;;;;;56.72;30.50;;;4.50;99.90;;;4.65;89.46;101820.94;4884752;29;20210;-74
2022/11/30 02:14:01;;;;;;;60.28;32.63;;;4.60;99.90;;;4.47;90.02;101827.16;4913668;29;20249;-75
2022/11/30 02:16:51;;;;;;;64.07;30.13;;;4.50;99.90;;;4.53;89.92;101831.97;4909005;29;20324;-74
2022/11/30 02:20:15;;;;;;;61.35;33.78;;;4.60;99.90;;;4.49;89.99;101823.38;4904268;29;20217;-75
2022/11/30 02:23:17;;;;;;;60.83;30.15;;;4.60;99.90;;;4.51;89.46;101825.88;4912890;29;20220;-74
2022/11/30 02:26:09;;;;;;;69.47;36.22;;;4.50;99.90;;;4.51;90.03;101818.69;4891086;29;20314;-74
2022/11/30 02:29:12;;;;;;;52.40;30.77;;;4.50;99.90;;;4.53;89.95;101827.44;4900584;29;20190;-74
2022/11/30 02:31:51;;;;;;;59.53;28.23;;;4.50;99.90;;;4.50;89.71;101819.69;4900246;29;20211;-75
2022/11/30 02:34:27;;;;;;;64.35;33.45;;;4.60;99.90;;;4.49;89.43;101825.19;4909927;29;20729;-74
2022/11/30 02:37:01;;;;;;;60.80;31.80;;;4.50;99.90;;;4.48;89.68;101818.13;4912527;29;20236;-74
2022/11/30 02:39:32;;;;;;;54.17;30.35;;;4.50;99.90;;;4.45;89.69;101824.63;4912589;29;20233;-73
2022/11/30 02:42:04;;;;;;;57.05;36.85;;;4.50;99.90;;;4.49;89.69;101826.03;4906225;29;20291;-74
2022/11/30 02:44:37;;;;;;;64.15;30.65;;;4.50;99.90;;;4.44;90.03;101822.94;4900320;29;20201;-74
2022/11/30 02:47:20;;;;;;;62.17;33.10;;;4.50;99.90;;;4.55;89.52;101825.47;5051286;23;20221;-70
2022/11/30 02:49:56;;;;;;;56.90;30.17;;;4.50;99.90;;;4.45;89.41;101830.00;4938573;29;20197;-69
2022/11/30 02:52:29;;;;;;;71.47;31.38;;;4.50;99.90;;;4.50;89.61;101827.75;4938853;29;20199;-70
2022/11/30 02:55:01;;;;;;;55.75;32.83;;;4.50;99.90;;;4.47;89.37;101822.63;4938233;29;20205;-71
2022/11/30 02:57:30;;;;;;;60.83;32.92;;;4.50;99.90;;;4.59;89.09;101826.91;4933177;29;20221;-71
2022/11/30 03:00:05;;;;;;;52.38;31.67;;;4.50;99.90;;;4.54;89.01;101823.78;4931941;29;20213;-69
2022/11/30 03:02:34;;;;;;;62.47;33.03;;;4.50;99.90;;;4.48;89.38;101829.72;4930030;29;20192;-69
2022/11/30 03:05:04;;;;;;;61.30;34.60;;;4.50;99.90;;;4.47;89.04;101830.69;4921480;29;20193;-70
2022/11/30 03:07:33;;;;;;;51.70;30.05;;;4.50;99.90;;;4.50;89.30;101826.91;4919404;29;20713;-69
2022/11/30 03:10:02;;;;;;;62.63;32.40;;;4.50;99.90;;;4.40;89.37;101831.41;4926417;29;20198;-69
2022/11/30 03:12:31;;;;;;;62.92;34.83;;;4.50;99.90;;;4.54;88.85;101826.47;4920062;29;20252;-69
2022/11/30 03:15:01;;;;;;;53.58;31.77;;;4.50;99.90;;;4.56;89.20;101831.66;4926682;29;20534;-69
2022/11/30 03:17:30;;;;;;;61.95;31.83;;;4.50;99.90;;;4.57;88.95;101841.41;4919287;29;20231;-69
2022/11/30 03:19:59;;;;;;;64.90;31.95;;;4.50;99.90;;;4.48;89.00;101837.75;4919072;29;20213;-69
2022/11/30 03:22:28;;;;;;;52.17;31.00;;;4.50;99.90;;;4.52;89.12;101836.47;4923424;29;20192;-69
2022/11/30 03:24:57;;;;;;;54.65;32.30;;;4.50;99.90;;;4.52;89.07;101836.47;4927617;29;20557;-68
2022/11/30 03:27:25;;;;;;;58.13;31.25;;;4.50;99.90;;;4.47;89.36;101836.03;4929730;29;20213;-69
2022/11/30 03:29:55;;;;;;;58.47;33.17;;;4.50;99.90;;;4.52;89.03;101841.84;4920506;29;20200;-69
2022/11/30 03:32:25;;;;;;;57.65;32.05;;;4.50;99.90;;;4.42;89.52;101830.25;4918932;29;20190;-69
2022/11/30 03:34:57;;;;;;;71.00;32.67;;;4.50;99.90;;;4.52;89.11;101843.66;4919358;29;20189;-69
2022/11/30 03:37:26;;;;;;;71.32;33.88;;;4.50;99.90;;;4.60;88.50;101850.00;4920050;29;20579;-69
2022/11/30 03:39:55;;;;;;;63.17;31.58;;;4.50;99.90;;;4.58;88.56;101851.16;4919868;29;20244;-69
2022/11/30 03:42:26;;;;;;;57.75;31.38;;;4.50;99.90;;;4.48;89.14;101855.66;4919820;29;20220;-69
2022/11/30 03:44:55;;;;;;;56.40;31.67;;;4.50;99.90;;;4.51;88.99;101845.50;4919230;29;20292;-69
2022/11/30 03:47:25;;;;;;;56.50;32.17;;;4.50;99.90;;;4.42;89.53;101846.34;4919142;29;20248;-69
2022/11/30 03:49:53;;;;;;;47.22;31.60;;;4.40;99.90;;;4.58;89.23;101854.69;4899971;29;20181;-68
2022/11/30 03:52:22;;;;;;;55.63;29.08;;;4.50;99.90;;;4.53;88.61;101848.91;4930764;29;20684;-68
2022/11/30 03:54:51;;;;;;;58.38;32.53;;;4.50;99.90;;;4.52;88.60;101847.19;4926389;29;20201;-69
2022/11/30 03:57:20;;;;;;;56.97;32.53;;;4.50;99.90;;;4.49;88.41;101844.81;4902271;29;20297;-69
2022/11/30 03:59:49;;;;;;;59.13;31.98;;;4.50;99.90;;;4.37;88.84;101853.94;4898521;29;20245;-70
2022/11/30 04:02:17;;;;;;;63.72;34.33;;;4.50;99.90;;;4.33;89.22;101850.69;4917937;29;20194;-69
2022/11/30 04:04:47;;;;;;;56.22;31.02;;;4.40;99.90;;;4.38;89.34;101852.97;4918465;29;20233;-70
2022/11/30 04:07:17;;;;;;;59.53;30.73;;;4.40;99.90;;;4.44;88.89;101849.75;4918170;29;20249;-69
2022/11/30 04:09:45;;;;;;;55.38;29.95;;;4.40;99.90;;;4.38;88.79;101855.66;4918027;29;20202;-69
2022/11/30 04:12:14;;;;;;;70.10;34.95;;;4.40;99.90;;;4.36;88.90;101854.94;4916976;29;20205;-70
2022/11/30 04:14:43;;;;;;;63.42;30.20;;;4.40;99.90;;;4.26;89.15;101860.25;4917961;29;20201;-70
2022/11/30 04:17:12;;;;;;;62.30;32.88;;;4.30;99.90;;;4.33;89.84;101856.06;4942547;29;20571;-70
2022/11/30 04:19:41;;;;;;;57.50;33.78;;;4.30;99.90;;;4.36;89.23;101868.31;4904539;29;20216;-69
2022/11/30 04:22:11;;;;;;;48.13;29.00;;;4.40;99.90;;;4.35;89.07;101872.00;4930696;29;20205;-69
2022/11/30 04:24:40;;;;;;;59.55;33.95;;;4.40;99.90;;;4.31;88.91;101851.81;4924000;29;20207;-69
2022/11/30 04:27:09;;;;;;;57.30;31.42;;;4.40;99.90;;;4.24;89.43;101853.38;4932376;29;20311;-71
2022/11/30 04:29:37;;;;;;;68.88;33.58;;;4.30;99.90;;;4.27;89.67;101855.75;4929996;29;20264;-68
2022/11/30 04:32:06;;;;;;;60.78;30.65;;;4.30;99.90;;;4.29;89.30;101857.34;4926941;29;20197;-69
2022/11/30 04:34:35;;;;;;;53.20;30.85;;;4.30;99.90;;;4.33;89.19;101863.25;4934616;29;20192;-70
2022/11/30 04:37:04;;;;;;;60.85;32.25;;;4.30;99.90;;;4.35;88.70;101863.97;4928625;29;20224;-70
2022/11/30 04:39:35;;;;;;;68.45;33.72;;;4.30;99.90;;;4.30;89.41;101864.38;4940903;29;20204;-69
2022/11/30 04:42:04;;;;;;;55.33;31.30;;;4.30;99.90;;;4.37;88.78;101867.34;4935964;29;20210;-69
2022/11/30 04:44:33;;;;;;;56.38;31.30;;;4.40;99.90;;;4.38;88.97;101877.09;4935038;29;20196;-69
2022/11/30 04:47:02;;;;;;;59.38;31.85;;;4.40;99.90;;;4.32;88.94;101885.66;4920309;29;20294;-69
2022/11/30 04:49:31;;;;;;;55.97;32.42;;;4.30;99.90;;;4.38;88.75;101882.44;4920844;29;20259;-69
2022/11/30 04:51:59;;;;;;;54.28;31.10;;;4.40;99.90;;;4.37;88.81;101878.91;4924692;29;20201;-70
2022/11/30 04:54:29;;;;;;;53.30;30.52;;;4.30;99.90;;;4.25;88.97;101885.38;4923607;29;20271;-69
2022/11/30 04:56:59;;;;;;;62.25;34.20;;;4.30;99.90;;;4.24;89.40;101880.16;4904676;29;20217;-67
2022/11/30 04:59:28;;;;;;;56.78;30.88;;;4.30;99.90;;;4.36;89.34;101887.09;4919808;29;20193;-69
2022/11/30 05:01:56;;;;;;;58.45;33.70;;;4.30;99.90;;;4.32;88.85;101883.84;4916920;29;20209;-70
2022/11/30 05:04:25;;;;;;;63.30;34.58;;;4.30;99.90;;;4.44;88.89;101881.91;4916429;29;20197;-69
2022/11/30 05:06:54;;;;;;;62.15;32.63;;;4.40;99.90;;;4.49;88.29;101874.28;4916783;29;20232;-69
2022/11/30 05:09:23;;;;;;;75.85;34.88;;;4.40;99.90;;;4.38;88.51;101882.44;4923857;29;20203;-71
2022/11/30 05:11:52;;;;;;;55.53;32.53;;;4.40;99.90;;;4.48;88.37;101883.31;4911545;29;20200;-69
2022/11/30 05:14:22;;;;;;;63.00;32.53;;;4.40;99.90;;;4.42;87.83;101883.84;4917562;29;20193;-70
2022/11/30 05:16:50;;;;;;;56.10;31.63;;;4.40;99.90;;;4.36;88.20;101881.72;4917205;29;20728;-69
2022/11/30 05:19:19;;;;;;;57.83;33.08;;;4.40;99.90;;;4.30;88.74;101895.69;4923845;29;20197;-69
2022/11/30 05:21:48;;;;;;;66.78;33.35;;;4.40;99.90;;;4.28;88.70;101893.16;4922665;29;20237;-69
2022/11/30 05:24:17;;;;;;;55.15;31.55;;;4.30;99.90;;;4.31;89.01;101894.69;4922635;29;20189;-69
2022/11/30 05:26:46;;;;;;;49.83;28.63;;;4.30;99.90;;;4.36;88.34;101900.47;4898277;29;20206;-69
2022/11/30 05:29:15;;;;;;;49.78;29.45;;;4.30;99.90;;;4.30;88.62;101909.94;4917472;29;20223;-70
2022/11/30 05:31:45;;;;;;;54.78;28.55;;;4.30;99.90;;;4.28;88.75;101913.72;4901688;29;20450;-69
2022/11/30 05:34:14;;;;;;;55.78;31.08;;;4.30;99.90;;;4.31;88.65;101908.09;4912380;29;20197;-69
2022/11/30 05:36:43;;;;;;;61.58;31.85;;;4.30;99.90;;;4.31;88.88;101913.44;4917184;29;20690;-68
2022/11/30 05:39:12;;;;;;;76.55;38.20;;;4.30;99.90;;;4.30;88.48;101911.78;4916990;29;20377;-68
2022/11/30 05:41:40;;;;;;;63.08;32.05;;;4.30;99.90;;;4.25;88.82;101914.00;4916835;29;20209;-68
2022/11/30 05:44:09;;;;;;;64.45;35.53;;;4.30;99.90;;;4.27;88.84;101907.53;4918858;29;20201;-69
2022/11/30 05:46:38;;;;;;;68.55;32.45;;;4.30;99.90;;;4.28;88.86;101914.59;4906691;29;20233;-70
2022/11/30 05:49:10;;;;;;;55.53;30.60;;;4.30;99.90;;;4.35;88.49;101914.88;4909749;29;20198;-70
2022/11/30 05:51:41;;;;;;;58.13;30.08;;;4.40;99.90;;;4.34;88.38;101921.22;4920988;29;20178;-69
2022/11/30 05:54:10;;;;;;;52.72;31.88;;;4.40;99.90;;;4.29;88.24;101920.78;4920046;29;20575;-70
2022/11/30 05:56:38;;;;;;;52.25;31.23;;;4.30;99.90;;;4.25;88.53;101919.38;4919455;29;20217;-71
2022/11/30 05:59:07;;;;;;;64.90;32.47;;;4.30;99.90;;;4.34;87.90;101916.72;4920254;29;20184;-69
2022/11/30 06:01:36;;;;;;;53.55;29.63;;;4.30;99.90;;;4.32;87.92;101923.19;4932208;29;20228;-69
2022/11/30 06:05:21;;;;;;;53.45;33.20;;;4.30;99.90;;;4.20;88.35;101930.50;4922109;29;20189;-69
2022/11/30 06:07:51;;;;;;;54.30;30.23;;;4.20;99.90;;;4.19;88.62;101931.47;4908712;29;20249;-70
2022/11/30 06:10:20;;;;;;;69.72;34.83;;;4.20;99.90;;;4.19;88.47;101936.84;4927325;29;20277;-71
2022/11/30 06:12:49;;;;;;;62.03;31.73;;;4.10;99.90;;;4.24;88.86;101939.09;4920784;29;20185;-69
2022/11/30 06:15:18;;;;;;;64.15;32.90;;;4.20;99.90;;;4.28;88.36;101940.53;4919887;29;20200;-70
2022/11/30 06:17:46;;;;;;;62.70;31.10;;;4.30;99.90;;;4.47;88.82;101943.25;4921797;29;20217;-70
2022/11/30 06:20:15;;;;;;;62.25;35.00;;;4.30;99.90;;;4.50;89.02;101944.84;4916970;29;20285;-69
2022/11/30 06:22:46;;;;;;;55.45;29.98;;;4.40;99.90;;;4.57;87.55;101940.59;4916462;29;20292;-68
2022/11/30 06:25:17;;;;;;;59.15;32.40;;;4.50;99.90;;;4.44;87.38;101945.38;4917760;29;20208;-70
2022/11/30 06:27:45;;;;;;;59.63;30.88;;;4.50;99.90;;;4.35;88.33;101947.06;4916889;29;20217;-69
2022/11/30 06:30:15;;;;;;;60.15;29.27;;;4.40;99.90;;;4.36;87.80;101948.72;4916489;29;20202;-69
2022/11/30 06:32:45;;;;;;;53.20;30.75;;;4.40;99.90;;;4.43;87.97;101947.22;4916593;29;20189;-68
2022/11/30 06:35:14;;;;;;;66.93;30.63;;;4.40;99.90;;;4.41;87.31;101957.19;4916912;29;20742;-70
2022/11/30 06:37:43;;;;;;;48.75;30.60;;;4.40;99.90;;;4.36;87.40;101954.94;4919945;29;20225;-71
2022/11/30 06:40:13;;;;;;;63.17;30.35;;;4.40;99.90;;;4.36;87.46;101959.44;4920021;29;20198;-70
2022/11/30 06:42:44;;;;;;;54.25;32.60;;;4.40;99.90;;;4.39;88.90;101959.19;4920422;29;20206;-69
2022/11/30 06:45:12;;;;;;;56.72;31.95;;;4.40;99.90;;;4.50;89.18;101959.09;4919765;29;20568;-70
2022/11/30 06:47:41;;;;;;;48.15;29.60;;;4.50;99.90;;;4.39;88.05;101959.19;4919870;29;20320;-69
2022/11/30 06:50:13;;;;;;;60.80;33.50;;;4.40;99.90;;;4.37;87.76;101961.16;4932724;29;20193;-70
2022/11/30 06:52:41;;;;;;;59.33;30.48;;;4.40;99.90;;;4.40;87.88;101970.75;4932757;29;20193;-69
2022/11/30 06:55:11;;;;;;;62.28;35.25;;;4.40;99.90;;;4.54;87.41;101970.38;4926882;29;20197;-70
2022/11/30 06:57:39;;;;;;;51.58;29.02;;;4.50;99.90;;;4.57;87.39;101970.09;4920205;29;20213;-70
2022/11/30 07:00:12;;;;;;;43.92;28.00;;;4.60;99.90;;;4.74;87.31;101972.13;4919612;29;20198;-69
2022/11/30 07:02:40;;;;;;;58.47;33.13;;;4.70;99.90;;;4.67;86.49;101971.81;4919507;29;20593;-70
2022/11/30 07:05:10;;;;;;;54.08;26.67;;;4.60;99.90;;;4.76;86.53;101979.03;4919501;29;20484;-70
2022/11/30 07:07:39;;;;;;;66.35;33.53;;;4.70;99.90;;;4.96;85.41;101979.06;4925654;29;20215;-71
2022/11/30 07:10:09;;;;;;;53.22;31.23;;;4.80;99.90;;;4.91;86.31;101978.63;4932210;29;20205;-70
2022/11/30 07:12:41;;;;;;;55.63;30.02;;;4.90;99.90;;;4.75;85.08;101977.34;4930949;29;20276;-70
2022/11/30 07:15:12;;;;;;;56.58;32.83;;;4.80;99.90;;;4.86;85.53;101983.56;4919085;29;20192;-68
2022/11/30 07:17:40;;;;;;;59.17;33.10;;;4.80;99.90;;;4.51;85.87;101974.16;4926775;29;20217;-68
2022/11/30 07:20:10;;;;;;;67.30;30.38;;;4.60;99.90;;;4.45;86.24;101979.25;4924340;29;20194;-70
2022/11/30 07:22:39;;;;;;;60.58;32.38;;;4.50;99.90;;;4.48;86.83;101979.81;4920015;29;20201;-69
2022/11/30 07:27:55;;;;;;;51.53;27.33;;;4.50;99.90;;;4.51;85.96;101984.88;4923833;29;20220;-70
2022/11/30 07:30:25;;;;;;;67.38;28.83;;;4.50;99.90;;;4.70;86.38;101992.97;4927037;29;20283;-69
2022/11/30 07:32:54;;;;;;;50.17;28.60;;;4.60;99.90;;;4.74;85.11;101991.72;4920308;29;20194;-69
2022/11/30 07:35:23;;;;;;;58.60;27.88;;;4.60;99.90;;;4.61;85.60;101996.50;4920746;29;20207;-69
2022/11/30 07:37:52;;;;;;;64.88;32.63;;;4.60;99.90;;;4.50;85.98;101999.31;4920129;29;20224;-71
2022/11/30 07:40:21;;;;;;;58.33;32.33;;;4.60;99.90;;;4.48;86.47;101998.56;4923854;29;20194;-68
2022/11/30 07:42:55;;;;;;;63.55;30.65;;;4.50;99.90;;;4.61;85.78;102001.00;4920321;29;20217;-70
2022/11/30 07:45:25;;;;;;;60.85;29.23;;;4.50;99.90;;;4.63;86.06;101999.03;4921219;29;20208;-69
2022/11/30 07:47:54;;;;;;;58.42;30.77;;;4.60;99.90;;;4.73;85.19;102000.78;4920897;29;20221;-70
2022/11/30 07:50:23;;;;;;;51.35;27.02;;;4.60;99.90;;;4.68;85.41;102012.88;4921807;29;20197;-70
2022/11/30 07:52:51;;;;;;;59.80;30.30;;;4.60;99.90;;;4.66;84.69;102004.97;4929518;29;20181;-70
2022/11/30 07:55:22;;;;;;;58.33;29.23;;;4.60;99.90;;;4.57;85.12;102005.78;4934608;29;20211;-67
2022/11/30 07:57:51;;;;;;;60.03;31.42;;;4.60;99.90;;;4.60;85.23;102005.50;4923111;29;20229;-69
2022/11/30 08:00:20;;;;;;;56.33;31.20;;;4.60;99.90;;;4.67;85.95;102011.19;4923209;29;20201;-68
2022/11/30 08:02:52;;;;;;;50.25;30.75;;;4.60;99.90;;;4.73;84.70;101999.91;4924924;29;20210;-70
2022/11/30 08:05:22;;;;;;;50.92;27.95;;;4.60;99.90;;;4.82;84.49;102005.31;4925951;29;20197;-70
2022/11/30 08:07:52;;;;;;;50.58;30.42;;;4.70;99.90;;;4.77;84.16;102007.56;4933451;29;20221;-70
2022/11/30 08:10:22;;;;;;;49.95;30.92;;;4.70;99.90;;;4.68;85.02;102003.03;4936332;29;20198;-70
2022/11/30 08:12:51;;;;;;;58.17;29.13;;;4.70;99.90;;;4.80;84.43;102009.94;4905848;29;20186;-70
2022/11/30 08:15:19;;;;;;;53.53;29.40;;;4.70;99.90;;;4.77;83.79;102007.56;4925701;29;20215;-70
2022/11/30 08:17:54;;;;;;;42.88;26.50;;;4.70;99.90;;;4.75;83.30;102012.19;4941214;29;20224;-69
2022/11/30 08:20:23;;;;;;;54.42;27.25;;;4.70;99.90;;;4.80;83.83;102011.78;4935234;29;20284;-71
2022/11/30 08:22:51;;;;;;;54.60;25.20;;;4.70;99.90;;;4.79;83.27;102015.47;4903361;29;20209;-70
2022/11/30 08:25:20;;;;;;;66.35;32.92;;;4.70;99.90;;;4.65;83.45;102023.88;4926724;29;20284;-70
2022/11/30 08:27:49;;;;;;;47.90;27.77;;;4.60;99.90;;;4.70;84.06;102016.25;4916484;29;20223;-69
2022/11/30 08:30:18;;;;;;;46.60;28.70;;;4.60;99.90;;;4.77;83.75;102029.00;4930546;29;20200;-70
2022/11/30 08:32:47;;;;;;;53.45;30.52;;;4.60;99.90;;;4.68;83.29;102018.25;4923802;29;20272;-69
2022/11/30 08:35:17;;;;;;;62.05;32.50;;;4.70;99.90;;;4.69;83.51;102023.50;4917748;29;20200;-70
2022/11/30 08:37:46;;;;;;;67.22;32.03;;;4.60;99.90;;;4.75;83.39;102032.78;4916463;29;20217;-69
2022/11/30 08:40:15;;;;;;;59.50;27.88;;;4.70;99.90;;;4.78;83.50;102033.38;4917784;29;20252;-71
2022/11/30 08:42:44;;;;;;;43.58;26.50;;;4.70;99.90;;;4.73;83.34;102038.31;4930975;29;20240;-68
2022/11/30 08:45:13;;;;;;;55.65;28.88;;;4.70;99.90;;;4.67;83.12;102033.50;4937709;29;20192;-70
2022/11/30 08:47:42;;;;;;;50.20;28.02;;;4.70;99.90;;;4.79;83.08;102035.06;4955993;23;20236;-86
2022/11/30 08:50:11;;;;;;;50.30;29.88;;;4.70;99.90;;;4.85;83.05;102040.88;4945259;29;20177;-83
2022/11/30 08:52:41;;;;;;;59.47;30.38;;;4.80;99.90;;;4.95;82.37;102037.22;4946349;29;20199;-82
2022/11/30 08:55:11;;;;;;;51.30;28.38;;;4.80;99.90;;;5.03;82.13;102044.59;5018847;23;20236;-74
2022/11/30 08:57:44;;;;;;;57.88;28.50;;;4.90;99.90;;;5.06;82.23;102045.16;4928480;29;20213;-72
2022/11/30 09:00:16;;;;;;;46.17;25.52;;;4.90;99.90;;;5.06;81.66;102044.31;4917531;29;20200;-73
2022/11/30 09:02:46;;;;;;;55.78;30.15;;;5.00;99.90;;;4.99;81.66;102048.53;4918007;29;20289;-72
2022/11/30 09:05:16;;;;;;;45.28;26.52;;;5.00;99.90;;;5.12;81.34;102039.25;4919388;29;20284;-73
2022/11/30 09:07:48;;;;;;;46.67;27.70;;;5.00;99.90;;;5.02;81.18;102045.59;4918847;29;20679;-75
2022/11/30 09:10:19;;;;;;;54.05;30.05;;;5.00;99.90;;;5.07;81.99;102043.34;4921499;29;20178;-74
2022/11/30 09:12:52;;;;;;;51.08;27.58;;;5.00;99.90;;;5.12;80.93;102049.13;4919894;29;20189;-75
2022/11/30 09:15:22;;;;;;;54.15;30.10;;;5.00;99.90;;;5.08;81.16;102048.53;4920693;29;20194;-73
2022/11/30 09:17:52;;;;;;;54.13;27.45;;;5.00;99.90;;;5.18;81.26;102053.94;4921547;29;20766;-74
2022/11/30 09:20:22;;;;;;;47.92;27.88;;;5.00;99.90;;;5.36;80.19;102049.59;4919056;29;20205;-73
2022/11/30 09:22:52;;;;;;;59.05;31.45;;;5.20;99.90;;;5.36;80.00;102046.91;4917569;29;20221;-72
2022/11/30 09:25:21;;;;;;;52.22;30.23;;;5.20;99.90;;;5.30;80.22;102047.47;4919084;29;20204;-72
2022/11/30 09:27:49;;;;;;;44.00;26.55;;;5.30;99.90;;;5.43;79.94;102050.72;4918421;29;20232;-75
2022/11/30 09:30:18;;;;;;;48.08;25.17;;;5.30;99.90;;;5.37;80.07;102048.59;4919233;29;20252;-74
2022/11/30 09:32:47;;;;;;;46.95;27.83;;;5.30;99.90;;;5.45;79.67;102048.75;4933440;29;20205;-72
2022/11/30 09:35:16;;;;;;;58.92;29.33;;;5.30;99.90;;;5.48;79.11;102056.50;4919641;29;20193;-73
2022/11/30 09:37:45;;;;;;;56.65;31.65;;;5.40;99.90;;;5.56;78.89;102059.34;4919212;29;20221;-74
2022/11/30 09:40:18;;;;;;;56.25;29.88;;;5.40;99.90;;;5.61;78.76;102054.41;4918153;29;20247;-73
2022/11/30 09:42:57;;;;;;;57.67;29.00;;;5.50;99.90;;;5.62;77.86;102048.00;4919154;29;20244;-75
2022/11/30 09:45:33;;;;;;;49.95;27.23;;;5.50;99.90;;;5.65;78.46;102053.13;4919051;29;20177;-73
2022/11/30 09:48:38;;;;;;;47.15;26.48;;;5.50;99.90;;;5.79;77.09;102050.97;4906581;29;20213;-75
2022/11/30 09:51:18;;;;;;;47.33;27.40;;;5.60;99.90;;;5.80;77.69;102047.31;4918709;29;20197;-72
2022/11/30 09:53:55;;;;;;;57.75;31.00;;;5.70;99.90;;;5.55;78.47;102051.44;4915502;29;20293;-74
2022/11/30 09:56:30;;;;;;;53.25;31.75;;;5.70;99.90;;;5.56;78.66;102051.28;4906704;29;20586;-74
2022/11/30 09:59:07;;;;;;;51.78;28.15;;;5.50;99.90;;;5.62;78.42;102047.16;4918250;29;20213;-73
2022/11/30 10:01:36;;;;;;;58.00;31.05;;;5.60;99.90;;;5.49;78.61;102051.97;4918070;29;20253;-74
2022/11/30 10:04:05;;;;;;;58.00;28.75;;;5.60;99.90;;;5.41;79.37;102044.66;4917732;29;20209;-72
2022/11/30 10:06:46;;;;;;;54.17;31.33;;;5.50;99.90;;;5.40;79.13;102036.72;4918626;29;20201;-73
2022/11/30 10:09:36;;;;;;;46.33;28.20;;;5.40;99.90;;;5.33;79.58;102041.78;4918130;29;20193;-74
2022/11/30 10:12:14;;;;;;;56.03;25.98;;;5.40;99.90;;;5.46;78.71;102031.66;4902329;29;20186;-75
2022/11/30 10:15:09;;;;;;;61.95;31.30;;;5.40;99.90;;;5.61;78.93;102040.97;4905274;29;20182;-73
2022/11/30 10:17:49;;;;;;;52.90;29.00;;;5.50;99.90;;;5.65;77.76;102042.38;4921497;29;20216;-73
2022/11/30 10:20:50;;;;;;;50.97;26.55;;;5.60;99.90;;;5.69;77.92;102041.09;4902330;29;20174;-73
2022/11/30 10:23:52;;;;;;;46.80;27.08;;;5.60;99.90;;;5.64;77.94;102045.19;4919578;29;20213;-74
2022/11/30 10:26:32;;;;;;;58.67;32.10;;;5.50;99.90;;;5.74;77.70;102045.19;4910626;29;20284;-73
2022/11/30 10:29:18;;;;;;;51.67;29.27;;;5.60;99.90;;;5.79;77.95;102042.94;4921023;29;20214;-74
2022/11/30 10:31:51;;;;;;;54.58;28.33;;;5.70;99.90;;;5.86;77.75;102041.34;4907364;29;20537;-73
2022/11/30 10:34:23;;;;;;;57.42;29.60;;;5.80;99.90;;;5.62;78.68;102047.16;4920458;29;20202;-73
2022/11/30 10:37:04;;;;;;;49.97;26.88;;;5.70;99.90;;;5.52;79.07;102047.16;4922555;29;20216;-72
2022/11/30 10:39:39;;;;;;;54.67;30.73;;;5.60;99.90;;;5.50;79.32;102045.63;4934630;29;20514;-73